sensor_id;sensor_type;location;lat;lon;timestamp;P1;durP1;ratioP1;P2;durP2;ratioP2
23288;SDS011;11813;50.834;4.280;2022-12-29T00:00:49;2.13;;;1.37;;
23288;SDS011;11813;50.834;4.280;2022-12-29T00:03:14;3.90;;;1.70;;
23288;SDS011;11813;50.834;4.280;2022-12-29T00:05:40;1.40;;;1.17;;
23288;SDS011;11813;50.834;4.280;2022-12-29T00:08:05;1.23;;;1.00;;
23288;SDS011;11813;50.834;4.280;2022-12-29T00:10:31;2.20;;;1.20;;
23288;SDS011;11813;50.834;4.280;2022-12-29T00:12:57;4.43;;;1.27;;
23288;SDS011;11813;50.834;4.280;2022-12-29T00:15:41;4.43;;;1.10;;
23288;SDS011;11813;50.834;4.280;2022-12-29T00:18:07;1.77;;;1.17;;
23288;SDS011;11813;50.834;4.280;2022-12-29T00:20:36;1.33;;;0.90;;
23288;SDS011;11813;50.834;4.280;2022-12-29T00:23:21;2.20;;;1.20;;
23288;SDS011;11813;50.834;4.280;2022-12-29T00:26:11;2.70;;;0.90;;
23288;SDS011;11813;50.834;4.280;2022-12-29T00:28:58;1.93;;;1.00;;
23288;SDS011;11813;50.834;4.280;2022-12-29T00:31:42;1.60;;;0.80;;
23288;SDS011;11813;50.834;4.280;2022-12-29T00:34:26;1.33;;;0.90;;
23288;SDS011;11813;50.834;4.280;2022-12-29T00:37:10;1.70;;;0.90;;
23288;SDS011;11813;50.834;4.280;2022-12-29T00:39:36;4.63;;;1.13;;
23288;SDS011;11813;50.834;4.280;2022-12-29T00:42:19;4.87;;;1.33;;
23288;SDS011;11813;50.834;4.280;2022-12-29T00:45:04;1.90;;;1.00;;
23288;SDS011;11813;50.834;4.280;2022-12-29T00:47:30;5.30;;;1.10;;
23288;SDS011;11813;50.834;4.280;2022-12-29T00:49:55;2.30;;;1.13;;
23288;SDS011;11813;50.834;4.280;2022-12-29T00:52:21;4.17;;;1.27;;
23288;SDS011;11813;50.834;4.280;2022-12-29T00:54:47;3.90;;;1.47;;
23288;SDS011;11813;50.834;4.280;2022-12-29T00:57:12;3.93;;;1.07;;
23288;SDS011;11813;50.834;4.280;2022-12-29T00:59:38;4.90;;;1.27;;
23288;SDS011;11813;50.834;4.280;2022-12-29T01:02:06;2.73;;;1.00;;
23288;SDS011;11813;50.834;4.280;2022-12-29T01:04:32;4.40;;;1.20;;
23288;SDS011;11813;50.834;4.280;2022-12-29T01:06:58;2.43;;;0.90;;
23288;SDS011;11813;50.834;4.280;2022-12-29T01:09:23;1.07;;;0.97;;
23288;SDS011;11813;50.834;4.280;2022-12-29T01:12:08;3.43;;;1.33;;
23288;SDS011;11813;50.834;4.280;2022-12-29T01:14:34;2.33;;;1.27;;
23288;SDS011;11813;50.834;4.280;2022-12-29T01:17:01;3.03;;;1.10;;
23288;SDS011;11813;50.834;4.280;2022-12-29T01:19:26;3.60;;;1.13;;
23288;SDS011;11813;50.834;4.280;2022-12-29T01:21:52;5.00;;;1.53;;
23288;SDS011;11813;50.834;4.280;2022-12-29T01:24:18;2.33;;;1.20;;
23288;SDS011;11813;50.834;4.280;2022-12-29T01:26:45;4.00;;;1.27;;
23288;SDS011;11813;50.834;4.280;2022-12-29T01:29:10;3.83;;;1.00;;
23288;SDS011;11813;50.834;4.280;2022-12-29T01:31:36;5.20;;;1.30;;
23288;SDS011;11813;50.834;4.280;2022-12-29T01:34:02;2.70;;;1.30;;
23288;SDS011;11813;50.834;4.280;2022-12-29T01:36:28;3.20;;;1.30;;
23288;SDS011;11813;50.834;4.280;2022-12-29T01:38:55;3.30;;;1.30;;
23288;SDS011;11813;50.834;4.280;2022-12-29T01:41:20;4.17;;;1.47;;
23288;SDS011;11813;50.834;4.280;2022-12-29T01:43:50;3.73;;;1.13;;
23288;SDS011;11813;50.834;4.280;2022-12-29T01:46:22;3.10;;;1.20;;
23288;SDS011;11813;50.834;4.280;2022-12-29T01:49:18;3.40;;;1.10;;
23288;SDS011;11813;50.834;4.280;2022-12-29T01:51:48;3.60;;;1.20;;
23288;SDS011;11813;50.834;4.280;2022-12-29T01:56:55;1.87;;;1.00;;
23288;SDS011;11813;50.834;4.280;2022-12-29T01:59:30;3.50;;;1.10;;
23288;SDS011;11813;50.834;4.280;2022-12-29T02:01:59;1.90;;;0.80;;
23288;SDS011;11813;50.834;4.280;2022-12-29T02:04:25;3.30;;;1.17;;
23288;SDS011;11813;50.834;4.280;2022-12-29T02:06:55;3.33;;;1.00;;
23288;SDS011;11813;50.834;4.280;2022-12-29T02:09:25;4.43;;;1.83;;
23288;SDS011;11813;50.834;4.280;2022-12-29T02:11:51;2.27;;;1.07;;
23288;SDS011;11813;50.834;4.280;2022-12-29T02:14:17;3.27;;;0.63;;
23288;SDS011;11813;50.834;4.280;2022-12-29T02:30:52;6.10;;;0.90;;
23288;SDS011;11813;50.834;4.280;2022-12-29T02:36:29;2.43;;;0.80;;
23288;SDS011;11813;50.834;4.280;2022-12-29T02:41:52;3.80;;;0.80;;
23288;SDS011;11813;50.834;4.280;2022-12-29T02:44:25;3.00;;;0.60;;
23288;SDS011;11813;50.834;4.280;2022-12-29T02:52:15;2.53;;;0.50;;
23288;SDS011;11813;50.834;4.280;2022-12-29T02:54:43;3.03;;;0.60;;
23288;SDS011;11813;50.834;4.280;2022-12-29T02:57:30;6.00;;;1.07;;
23288;SDS011;11813;50.834;4.280;2022-12-29T03:02:38;3.07;;;0.80;;
23288;SDS011;11813;50.834;4.280;2022-12-29T03:10:59;4.07;;;1.13;;
23288;SDS011;11813;50.834;4.280;2022-12-29T03:19:08;5.33;;;1.13;;
23288;SDS011;11813;50.834;4.280;2022-12-29T03:21:44;2.10;;;0.80;;
23288;SDS011;11813;50.834;4.280;2022-12-29T03:24:36;5.20;;;1.00;;
23288;SDS011;11813;50.834;4.280;2022-12-29T03:27:06;5.87;;;0.63;;
23288;SDS011;11813;50.834;4.280;2022-12-29T03:29:36;2.30;;;0.80;;
23288;SDS011;11813;50.834;4.280;2022-12-29T03:32:07;2.43;;;0.90;;
23288;SDS011;11813;50.834;4.280;2022-12-29T03:34:36;3.17;;;0.60;;
23288;SDS011;11813;50.834;4.280;2022-12-29T03:37:05;3.37;;;1.00;;
23288;SDS011;11813;50.834;4.280;2022-12-29T03:39:36;2.20;;;0.90;;
23288;SDS011;11813;50.834;4.280;2022-12-29T03:42:03;4.70;;;1.07;;
23288;SDS011;11813;50.834;4.280;2022-12-29T03:44:33;1.87;;;0.80;;
23288;SDS011;11813;50.834;4.280;2022-12-29T03:47:04;2.87;;;1.20;;
23288;SDS011;11813;50.834;4.280;2022-12-29T03:49:31;6.67;;;1.40;;
23288;SDS011;11813;50.834;4.280;2022-12-29T03:51:56;5.70;;;1.40;;
23288;SDS011;11813;50.834;4.280;2022-12-29T03:54:23;5.37;;;1.10;;
23288;SDS011;11813;50.834;4.280;2022-12-29T03:56:48;2.30;;;0.77;;
23288;SDS011;11813;50.834;4.280;2022-12-29T03:59:14;6.53;;;1.17;;
23288;SDS011;11813;50.834;4.280;2022-12-29T04:01:39;4.03;;;0.93;;
23288;SDS011;11813;50.834;4.280;2022-12-29T04:04:05;3.27;;;1.00;;
23288;SDS011;11813;50.834;4.280;2022-12-29T04:06:31;3.00;;;1.10;;
23288;SDS011;11813;50.834;4.280;2022-12-29T04:08:56;4.47;;;1.30;;
23288;SDS011;11813;50.834;4.280;2022-12-29T04:11:22;2.47;;;0.90;;
23288;SDS011;11813;50.834;4.280;2022-12-29T04:13:48;6.27;;;1.20;;
23288;SDS011;11813;50.834;4.280;2022-12-29T04:16:13;2.20;;;0.87;;
23288;SDS011;11813;50.834;4.280;2022-12-29T04:18:39;0.97;;;0.67;;
23288;SDS011;11813;50.834;4.280;2022-12-29T04:21:04;3.87;;;1.00;;
23288;SDS011;11813;50.834;4.280;2022-12-29T04:23:31;5.97;;;0.80;;
23288;SDS011;11813;50.834;4.280;2022-12-29T04:25:59;3.13;;;0.80;;
23288;SDS011;11813;50.834;4.280;2022-12-29T04:28:25;1.67;;;0.90;;
23288;SDS011;11813;50.834;4.280;2022-12-29T04:30:51;4.13;;;0.80;;
23288;SDS011;11813;50.834;4.280;2022-12-29T04:33:17;6.03;;;1.27;;
23288;SDS011;11813;50.834;4.280;2022-12-29T04:35:43;5.47;;;1.30;;
23288;SDS011;11813;50.834;4.280;2022-12-29T04:38:08;4.43;;;1.80;;
23288;SDS011;11813;50.834;4.280;2022-12-29T04:40:34;7.60;;;3.07;;
23288;SDS011;11813;50.834;4.280;2022-12-29T04:43:00;3.77;;;1.83;;
23288;SDS011;11813;50.834;4.280;2022-12-29T04:45:26;9.17;;;2.40;;
23288;SDS011;11813;50.834;4.280;2022-12-29T04:47:51;4.17;;;2.23;;
23288;SDS011;11813;50.834;4.280;2022-12-29T04:50:17;6.63;;;2.00;;
23288;SDS011;11813;50.834;4.280;2022-12-29T04:52:42;4.63;;;2.03;;
23288;SDS011;11813;50.834;4.280;2022-12-29T04:55:08;6.23;;;2.07;;
23288;SDS011;11813;50.834;4.280;2022-12-29T04:57:34;5.73;;;2.13;;
23288;SDS011;11813;50.834;4.280;2022-12-29T04:59:59;5.23;;;2.00;;
23288;SDS011;11813;50.834;4.280;2022-12-29T05:02:25;6.60;;;1.93;;
23288;SDS011;11813;50.834;4.280;2022-12-29T05:04:51;6.10;;;2.10;;
23288;SDS011;11813;50.834;4.280;2022-12-29T05:07:16;5.07;;;1.50;;
23288;SDS011;11813;50.834;4.280;2022-12-29T05:09:42;5.10;;;1.40;;
23288;SDS011;11813;50.834;4.280;2022-12-29T05:12:07;7.73;;;1.80;;
23288;SDS011;11813;50.834;4.280;2022-12-29T05:14:33;3.77;;;1.63;;
23288;SDS011;11813;50.834;4.280;2022-12-29T05:16:58;5.57;;;1.83;;
23288;SDS011;11813;50.834;4.280;2022-12-29T05:19:24;6.07;;;1.63;;
23288;SDS011;11813;50.834;4.280;2022-12-29T05:21:49;7.07;;;1.60;;
23288;SDS011;11813;50.834;4.280;2022-12-29T05:24:15;3.40;;;1.43;;
23288;SDS011;11813;50.834;4.280;2022-12-29T05:26:41;7.13;;;1.67;;
23288;SDS011;11813;50.834;4.280;2022-12-29T05:29:06;6.93;;;2.60;;
23288;SDS011;11813;50.834;4.280;2022-12-29T05:31:32;8.23;;;2.10;;
23288;SDS011;11813;50.834;4.280;2022-12-29T05:33:58;4.30;;;1.67;;
23288;SDS011;11813;50.834;4.280;2022-12-29T05:36:24;3.80;;;1.03;;
23288;SDS011;11813;50.834;4.280;2022-12-29T05:38:50;8.10;;;1.73;;
23288;SDS011;11813;50.834;4.280;2022-12-29T05:41:16;4.90;;;1.50;;
23288;SDS011;11813;50.834;4.280;2022-12-29T05:43:41;10.40;;;2.20;;
23288;SDS011;11813;50.834;4.280;2022-12-29T05:46:07;4.10;;;1.00;;
23288;SDS011;11813;50.834;4.280;2022-12-29T05:48:32;6.80;;;1.67;;
23288;SDS011;11813;50.834;4.280;2022-12-29T05:50:58;7.70;;;1.80;;
23288;SDS011;11813;50.834;4.280;2022-12-29T05:53:23;4.90;;;1.40;;
23288;SDS011;11813;50.834;4.280;2022-12-29T05:55:49;9.20;;;1.63;;
23288;SDS011;11813;50.834;4.280;2022-12-29T05:58:15;7.00;;;1.47;;
23288;SDS011;11813;50.834;4.280;2022-12-29T06:00:41;7.97;;;1.83;;
23288;SDS011;11813;50.834;4.280;2022-12-29T06:03:07;6.30;;;1.30;;
23288;SDS011;11813;50.834;4.280;2022-12-29T06:05:32;13.73;;;2.10;;
23288;SDS011;11813;50.834;4.280;2022-12-29T06:07:58;6.63;;;1.60;;
23288;SDS011;11813;50.834;4.280;2022-12-29T06:10:24;6.00;;;1.50;;
23288;SDS011;11813;50.834;4.280;2022-12-29T06:12:50;7.37;;;1.40;;
23288;SDS011;11813;50.834;4.280;2022-12-29T06:15:16;5.67;;;1.27;;
23288;SDS011;11813;50.834;4.280;2022-12-29T06:17:42;9.50;;;2.10;;
23288;SDS011;11813;50.834;4.280;2022-12-29T06:20:07;3.13;;;1.40;;
23288;SDS011;11813;50.834;4.280;2022-12-29T06:22:35;6.07;;;1.40;;
23288;SDS011;11813;50.834;4.280;2022-12-29T06:25:00;7.00;;;2.10;;
23288;SDS011;11813;50.834;4.280;2022-12-29T06:27:26;7.67;;;1.70;;
23288;SDS011;11813;50.834;4.280;2022-12-29T06:29:53;12.40;;;1.70;;
23288;SDS011;11813;50.834;4.280;2022-12-29T06:32:18;6.77;;;1.40;;
23288;SDS011;11813;50.834;4.280;2022-12-29T06:34:44;7.37;;;2.23;;
23288;SDS011;11813;50.834;4.280;2022-12-29T06:37:09;10.00;;;1.87;;
23288;SDS011;11813;50.834;4.280;2022-12-29T06:39:36;5.97;;;1.87;;
23288;SDS011;11813;50.834;4.280;2022-12-29T06:42:01;8.83;;;1.73;;
23288;SDS011;11813;50.834;4.280;2022-12-29T06:44:27;9.30;;;2.13;;
23288;SDS011;11813;50.834;4.280;2022-12-29T06:46:53;8.50;;;1.80;;
23288;SDS011;11813;50.834;4.280;2022-12-29T06:49:18;9.00;;;2.37;;
23288;SDS011;11813;50.834;4.280;2022-12-29T06:51:44;9.57;;;2.00;;
23288;SDS011;11813;50.834;4.280;2022-12-29T06:54:10;11.10;;;1.90;;
23288;SDS011;11813;50.834;4.280;2022-12-29T06:56:35;8.40;;;1.47;;
23288;SDS011;11813;50.834;4.280;2022-12-29T06:59:01;9.27;;;1.77;;
23288;SDS011;11813;50.834;4.280;2022-12-29T07:01:27;7.77;;;1.97;;
23288;SDS011;11813;50.834;4.280;2022-12-29T07:03:53;14.13;;;1.60;;
23288;SDS011;11813;50.834;4.280;2022-12-29T07:06:18;8.60;;;1.67;;
23288;SDS011;11813;50.834;4.280;2022-12-29T07:08:44;11.00;;;2.13;;
23288;SDS011;11813;50.834;4.280;2022-12-29T07:11:09;11.83;;;2.93;;
23288;SDS011;11813;50.834;4.280;2022-12-29T07:13:35;11.07;;;2.63;;
23288;SDS011;11813;50.834;4.280;2022-12-29T07:16:05;8.10;;;1.80;;
23288;SDS011;11813;50.834;4.280;2022-12-29T07:18:34;8.37;;;2.07;;
23288;SDS011;11813;50.834;4.280;2022-12-29T07:20:59;10.13;;;2.00;;
23288;SDS011;11813;50.834;4.280;2022-12-29T07:23:25;9.07;;;1.60;;
23288;SDS011;11813;50.834;4.280;2022-12-29T07:25:58;12.80;;;2.30;;
23288;SDS011;11813;50.834;4.280;2022-12-29T07:28:27;7.87;;;1.50;;
23288;SDS011;11813;50.834;4.280;2022-12-29T07:30:53;7.00;;;1.57;;
23288;SDS011;11813;50.834;4.280;2022-12-29T07:33:19;7.43;;;1.47;;
23288;SDS011;11813;50.834;4.280;2022-12-29T07:35:44;10.97;;;1.97;;
23288;SDS011;11813;50.834;4.280;2022-12-29T07:38:10;5.50;;;1.53;;
23288;SDS011;11813;50.834;4.280;2022-12-29T07:40:36;12.27;;;1.93;;
23288;SDS011;11813;50.834;4.280;2022-12-29T07:43:01;8.60;;;2.10;;
23288;SDS011;11813;50.834;4.280;2022-12-29T07:45:27;11.47;;;2.90;;
23288;SDS011;11813;50.834;4.280;2022-12-29T07:47:53;7.47;;;1.70;;
23288;SDS011;11813;50.834;4.280;2022-12-29T07:50:18;11.53;;;1.93;;
23288;SDS011;11813;50.834;4.280;2022-12-29T07:52:44;12.17;;;1.83;;
23288;SDS011;11813;50.834;4.280;2022-12-29T07:55:11;9.53;;;1.87;;
23288;SDS011;11813;50.834;4.280;2022-12-29T07:57:37;10.33;;;1.97;;
23288;SDS011;11813;50.834;4.280;2022-12-29T08:00:03;9.20;;;1.50;;
23288;SDS011;11813;50.834;4.280;2022-12-29T08:02:29;8.17;;;1.80;;
23288;SDS011;11813;50.834;4.280;2022-12-29T08:04:54;8.97;;;2.40;;
23288;SDS011;11813;50.834;4.280;2022-12-29T08:07:20;10.27;;;2.07;;
23288;SDS011;11813;50.834;4.280;2022-12-29T08:09:46;10.57;;;1.90;;
23288;SDS011;11813;50.834;4.280;2022-12-29T08:12:11;5.13;;;1.70;;
23288;SDS011;11813;50.834;4.280;2022-12-29T08:14:37;12.30;;;2.40;;
23288;SDS011;11813;50.834;4.280;2022-12-29T08:17:02;9.73;;;2.07;;
23288;SDS011;11813;50.834;4.280;2022-12-29T08:19:28;7.60;;;2.03;;
23288;SDS011;11813;50.834;4.280;2022-12-29T08:21:54;8.80;;;1.80;;
23288;SDS011;11813;50.834;4.280;2022-12-29T08:24:19;12.07;;;2.10;;
23288;SDS011;11813;50.834;4.280;2022-12-29T08:26:45;10.23;;;2.60;;
23288;SDS011;11813;50.834;4.280;2022-12-29T08:29:11;10.70;;;2.37;;
23288;SDS011;11813;50.834;4.280;2022-12-29T08:31:36;7.43;;;1.50;;
23288;SDS011;11813;50.834;4.280;2022-12-29T08:34:02;9.20;;;2.37;;
23288;SDS011;11813;50.834;4.280;2022-12-29T08:36:28;2.77;;;1.33;;
23288;SDS011;11813;50.834;4.280;2022-12-29T08:38:55;10.10;;;1.60;;
23288;SDS011;11813;50.834;4.280;2022-12-29T08:41:21;6.77;;;1.90;;
23288;SDS011;11813;50.834;4.280;2022-12-29T08:43:48;13.40;;;2.60;;
23288;SDS011;11813;50.834;4.280;2022-12-29T08:46:14;7.87;;;2.30;;
23288;SDS011;11813;50.834;4.280;2022-12-29T08:48:41;7.77;;;2.20;;
23288;SDS011;11813;50.834;4.280;2022-12-29T08:51:06;5.63;;;1.93;;
23288;SDS011;11813;50.834;4.280;2022-12-29T08:53:33;12.60;;;1.77;;
23288;SDS011;11813;50.834;4.280;2022-12-29T08:55:59;8.93;;;1.73;;
23288;SDS011;11813;50.834;4.280;2022-12-29T08:58:26;6.40;;;1.23;;
23288;SDS011;11813;50.834;4.280;2022-12-29T09:00:52;9.17;;;1.50;;
23288;SDS011;11813;50.834;4.280;2022-12-29T09:03:19;14.03;;;2.27;;
23288;SDS011;11813;50.834;4.280;2022-12-29T09:05:48;7.13;;;2.23;;
23288;SDS011;11813;50.834;4.280;2022-12-29T09:08:18;12.07;;;3.07;;
23288;SDS011;11813;50.834;4.280;2022-12-29T09:10:44;13.83;;;1.33;;
23288;SDS011;11813;50.834;4.280;2022-12-29T09:13:10;9.00;;;2.27;;
23288;SDS011;11813;50.834;4.280;2022-12-29T09:15:37;11.80;;;2.20;;
23288;SDS011;11813;50.834;4.280;2022-12-29T09:18:03;10.90;;;1.93;;
23288;SDS011;11813;50.834;4.280;2022-12-29T09:20:28;11.77;;;2.00;;
23288;SDS011;11813;50.834;4.280;2022-12-29T09:22:54;11.37;;;2.83;;
23288;SDS011;11813;50.834;4.280;2022-12-29T09:25:19;13.77;;;2.10;;
23288;SDS011;11813;50.834;4.280;2022-12-29T09:27:48;11.13;;;2.50;;
23288;SDS011;11813;50.834;4.280;2022-12-29T09:30:14;12.37;;;2.20;;
23288;SDS011;11813;50.834;4.280;2022-12-29T09:32:39;11.83;;;2.00;;
23288;SDS011;11813;50.834;4.280;2022-12-29T09:35:05;12.37;;;2.13;;
23288;SDS011;11813;50.834;4.280;2022-12-29T09:37:31;11.70;;;2.97;;
23288;SDS011;11813;50.834;4.280;2022-12-29T09:39:57;11.67;;;1.93;;
23288;SDS011;11813;50.834;4.280;2022-12-29T09:42:31;11.07;;;2.53;;
23288;SDS011;11813;50.834;4.280;2022-12-29T09:47:34;6.63;;;1.90;;
23288;SDS011;11813;50.834;4.280;2022-12-29T09:52:30;15.13;;;2.80;;
23288;SDS011;11813;50.834;4.280;2022-12-29T09:55:03;13.73;;;2.33;;
23288;SDS011;11813;50.834;4.280;2022-12-29T10:00:19;12.87;;;2.50;;
23288;SDS011;11813;50.834;4.280;2022-12-29T10:02:48;10.90;;;2.57;;
23288;SDS011;11813;50.834;4.280;2022-12-29T10:05:27;14.83;;;2.73;;
23288;SDS011;11813;50.834;4.280;2022-12-29T10:16:14;10.50;;;2.53;;
23288;SDS011;11813;50.834;4.280;2022-12-29T10:18:50;7.63;;;1.67;;
23288;SDS011;11813;50.834;4.280;2022-12-29T10:23:52;10.20;;;2.37;;
23288;SDS011;11813;50.834;4.280;2022-12-29T10:26:20;11.90;;;2.27;;
23288;SDS011;11813;50.834;4.280;2022-12-29T10:31:21;10.10;;;2.00;;
23288;SDS011;11813;50.834;4.280;2022-12-29T10:33:57;11.07;;;2.30;;
23288;SDS011;11813;50.834;4.280;2022-12-29T10:36:28;14.93;;;2.87;;
23288;SDS011;11813;50.834;4.280;2022-12-29T10:39:22;14.37;;;2.83;;
23288;SDS011;11813;50.834;4.280;2022-12-29T10:44:29;6.63;;;1.70;;
23288;SDS011;11813;50.834;4.280;2022-12-29T10:46:59;11.03;;;2.47;;
23288;SDS011;11813;50.834;4.280;2022-12-29T10:49:30;10.47;;;2.40;;
23288;SDS011;11813;50.834;4.280;2022-12-29T10:52:02;13.67;;;2.37;;
23288;SDS011;11813;50.834;4.280;2022-12-29T10:54:30;12.23;;;2.40;;
23288;SDS011;11813;50.834;4.280;2022-12-29T10:57:16;13.17;;;2.50;;
23288;SDS011;11813;50.834;4.280;2022-12-29T10:59:58;14.80;;;2.70;;
23288;SDS011;11813;50.834;4.280;2022-12-29T11:02:37;9.23;;;2.00;;
23288;SDS011;11813;50.834;4.280;2022-12-29T11:05:19;13.77;;;1.83;;
23288;SDS011;11813;50.834;4.280;2022-12-29T11:07:53;15.77;;;3.03;;
23288;SDS011;11813;50.834;4.280;2022-12-29T11:13:12;9.50;;;2.40;;
23288;SDS011;11813;50.834;4.280;2022-12-29T11:21:02;15.30;;;2.53;;
23288;SDS011;11813;50.834;4.280;2022-12-29T11:23:55;9.97;;;2.40;;
23288;SDS011;11813;50.834;4.280;2022-12-29T11:26:26;13.63;;;2.50;;
23288;SDS011;11813;50.834;4.280;2022-12-29T11:31:43;14.53;;;2.90;;
23288;SDS011;11813;50.834;4.280;2022-12-29T11:34:20;9.40;;;1.90;;
23288;SDS011;11813;50.834;4.280;2022-12-29T11:36:58;10.83;;;2.43;;
23288;SDS011;11813;50.834;4.280;2022-12-29T11:39:36;9.33;;;2.47;;
23288;SDS011;11813;50.834;4.280;2022-12-29T11:42:12;8.87;;;2.43;;
23288;SDS011;11813;50.834;4.280;2022-12-29T11:44:44;13.40;;;2.70;;
23288;SDS011;11813;50.834;4.280;2022-12-29T11:47:19;11.10;;;2.10;;
23288;SDS011;11813;50.834;4.280;2022-12-29T11:49:59;10.03;;;1.83;;
23288;SDS011;11813;50.834;4.280;2022-12-29T11:52:28;11.87;;;2.60;;
23288;SDS011;11813;50.834;4.280;2022-12-29T11:54:58;12.50;;;1.97;;
23288;SDS011;11813;50.834;4.280;2022-12-29T11:57:25;8.70;;;2.03;;
23288;SDS011;11813;50.834;4.280;2022-12-29T11:59:53;11.17;;;2.50;;
23288;SDS011;11813;50.834;4.280;2022-12-29T12:05:21;18.40;;;2.63;;
23288;SDS011;11813;50.834;4.280;2022-12-29T12:07:49;10.20;;;2.93;;
23288;SDS011;11813;50.834;4.280;2022-12-29T12:10:43;10.63;;;2.60;;
23288;SDS011;11813;50.834;4.280;2022-12-29T12:13:18;14.03;;;2.07;;
23288;SDS011;11813;50.834;4.280;2022-12-29T12:16:13;10.30;;;2.07;;
23288;SDS011;11813;50.834;4.280;2022-12-29T12:19:00;10.67;;;2.13;;
23288;SDS011;11813;50.834;4.280;2022-12-29T12:21:53;11.20;;;2.53;;
23288;SDS011;11813;50.834;4.280;2022-12-29T12:24:37;9.80;;;2.53;;
23288;SDS011;11813;50.834;4.280;2022-12-29T12:27:29;6.80;;;1.90;;
23288;SDS011;11813;50.834;4.280;2022-12-29T12:30:05;10.47;;;2.17;;
23288;SDS011;11813;50.834;4.280;2022-12-29T12:51:36;12.77;;;2.70;;
23288;SDS011;11813;50.834;4.280;2022-12-29T12:54:30;11.87;;;2.40;;
23288;SDS011;11813;50.834;4.280;2022-12-29T12:57:14;9.97;;;2.50;;
23288;SDS011;11813;50.834;4.280;2022-12-29T13:00:02;4.33;;;1.90;;
23288;SDS011;11813;50.834;4.280;2022-12-29T13:10:35;7.20;;;2.37;;
23288;SDS011;11813;50.834;4.280;2022-12-29T13:13:30;11.87;;;1.70;;
23288;SDS011;11813;50.834;4.280;2022-12-29T13:19:08;9.80;;;1.90;;
23288;SDS011;11813;50.834;4.280;2022-12-29T13:30:03;7.37;;;2.00;;
23288;SDS011;11813;50.834;4.280;2022-12-29T13:37:54;14.80;;;2.30;;
23288;SDS011;11813;50.834;4.280;2022-12-29T13:40:23;11.30;;;2.20;;
23288;SDS011;11813;50.834;4.280;2022-12-29T13:42:51;14.93;;;2.57;;
23288;SDS011;11813;50.834;4.280;2022-12-29T13:45:19;7.30;;;1.93;;
23288;SDS011;11813;50.834;4.280;2022-12-29T13:47:49;14.70;;;2.87;;
23288;SDS011;11813;50.834;4.280;2022-12-29T13:50:38;15.63;;;2.73;;
23288;SDS011;11813;50.834;4.280;2022-12-29T13:55:57;10.63;;;2.30;;
23288;SDS011;11813;50.834;4.280;2022-12-29T13:59:09;10.10;;;2.00;;
23288;SDS011;11813;50.834;4.280;2022-12-29T14:04:11;11.37;;;2.43;;
23288;SDS011;11813;50.834;4.280;2022-12-29T14:06:45;12.23;;;2.53;;
23288;SDS011;11813;50.834;4.280;2022-12-29T14:11:59;12.57;;;2.70;;
23288;SDS011;11813;50.834;4.280;2022-12-29T14:14:27;11.63;;;2.60;;
23288;SDS011;11813;50.834;4.280;2022-12-29T14:16:56;10.50;;;2.57;;
23288;SDS011;11813;50.834;4.280;2022-12-29T14:19:35;10.97;;;2.60;;
23288;SDS011;11813;50.834;4.280;2022-12-29T14:22:07;13.17;;;2.70;;
23288;SDS011;11813;50.834;4.280;2022-12-29T14:32:17;15.40;;;2.80;;
23288;SDS011;11813;50.834;4.280;2022-12-29T14:34:49;9.20;;;1.93;;
23288;SDS011;11813;50.834;4.280;2022-12-29T14:37:26;5.57;;;1.00;;
23288;SDS011;11813;50.834;4.280;2022-12-29T14:42:31;4.67;;;1.30;;
23288;SDS011;11813;50.834;4.280;2022-12-29T14:47:39;14.83;;;1.77;;
23288;SDS011;11813;50.834;4.280;2022-12-29T14:50:17;6.17;;;1.37;;
23288;SDS011;11813;50.834;4.280;2022-12-29T14:57:49;6.53;;;1.30;;
23288;SDS011;11813;50.834;4.280;2022-12-29T15:00:26;10.00;;;1.47;;
23288;SDS011;11813;50.834;4.280;2022-12-29T15:03:04;6.33;;;1.60;;
23288;SDS011;11813;50.834;4.280;2022-12-29T15:05:55;5.70;;;1.57;;
23288;SDS011;11813;50.834;4.280;2022-12-29T15:08:27;6.10;;;1.30;;
23288;SDS011;11813;50.834;4.280;2022-12-29T15:13:31;4.27;;;1.30;;
23288;SDS011;11813;50.834;4.280;2022-12-29T15:16:01;4.20;;;1.50;;
23288;SDS011;11813;50.834;4.280;2022-12-29T15:18:29;7.60;;;1.40;;
23288;SDS011;11813;50.834;4.280;2022-12-29T15:21:01;4.20;;;1.37;;
23288;SDS011;11813;50.834;4.280;2022-12-29T15:23:30;8.17;;;1.70;;
23288;SDS011;11813;50.834;4.280;2022-12-29T15:26:01;5.57;;;1.53;;
23288;SDS011;11813;50.834;4.280;2022-12-29T15:28:45;6.57;;;1.50;;
23288;SDS011;11813;50.834;4.280;2022-12-29T15:33:41;4.23;;;1.50;;
23288;SDS011;11813;50.834;4.280;2022-12-29T15:36:10;7.37;;;1.87;;
23288;SDS011;11813;50.834;4.280;2022-12-29T15:38:38;7.73;;;2.53;;
23288;SDS011;11813;50.834;4.280;2022-12-29T15:41:10;12.57;;;2.50;;
23288;SDS011;11813;50.834;4.280;2022-12-29T15:47:09;8.63;;;2.27;;
23288;SDS011;11813;50.834;4.280;2022-12-29T15:49:37;9.37;;;2.80;;
23288;SDS011;11813;50.834;4.280;2022-12-29T15:52:07;14.73;;;3.50;;
23288;SDS011;11813;50.834;4.280;2022-12-29T15:54:34;8.03;;;2.70;;
23288;SDS011;11813;50.834;4.280;2022-12-29T15:57:01;7.93;;;2.30;;
23288;SDS011;11813;50.834;4.280;2022-12-29T15:59:30;15.50;;;3.03;;
23288;SDS011;11813;50.834;4.280;2022-12-29T16:01:58;16.87;;;4.07;;
23288;SDS011;11813;50.834;4.280;2022-12-29T16:04:27;9.43;;;2.33;;
23288;SDS011;11813;50.834;4.280;2022-12-29T16:06:56;7.67;;;2.67;;
23288;SDS011;11813;50.834;4.280;2022-12-29T16:11:59;9.67;;;2.63;;
23288;SDS011;11813;50.834;4.280;2022-12-29T16:14:47;12.83;;;2.37;;
23288;SDS011;11813;50.834;4.280;2022-12-29T16:17:18;8.00;;;2.87;;
23288;SDS011;11813;50.834;4.280;2022-12-29T16:19:51;11.77;;;2.97;;
23288;SDS011;11813;50.834;4.280;2022-12-29T16:22:25;10.20;;;3.53;;
23288;SDS011;11813;50.834;4.280;2022-12-29T16:24:54;8.93;;;2.77;;
23288;SDS011;11813;50.834;4.280;2022-12-29T16:27:23;9.90;;;3.37;;
23288;SDS011;11813;50.834;4.280;2022-12-29T16:29:56;12.43;;;3.93;;
23288;SDS011;11813;50.834;4.280;2022-12-29T16:32:28;12.10;;;3.17;;
23288;SDS011;11813;50.834;4.280;2022-12-29T16:35:09;13.70;;;3.70;;
23288;SDS011;11813;50.834;4.280;2022-12-29T16:37:37;16.90;;;3.83;;
23288;SDS011;11813;50.834;4.280;2022-12-29T16:42:47;17.60;;;4.27;;
23288;SDS011;11813;50.834;4.280;2022-12-29T16:50:30;14.10;;;3.10;;
23288;SDS011;11813;50.834;4.280;2022-12-29T16:52:57;16.20;;;3.23;;
23288;SDS011;11813;50.834;4.280;2022-12-29T16:55:23;20.47;;;3.87;;
23288;SDS011;11813;50.834;4.280;2022-12-29T16:57:49;18.23;;;3.20;;
23288;SDS011;11813;50.834;4.280;2022-12-29T17:00:21;15.67;;;3.13;;
23288;SDS011;11813;50.834;4.280;2022-12-29T17:02:49;13.50;;;3.17;;
23288;SDS011;11813;50.834;4.280;2022-12-29T17:05:17;15.53;;;3.10;;
23288;SDS011;11813;50.834;4.280;2022-12-29T17:07:44;10.20;;;3.10;;
23288;SDS011;11813;50.834;4.280;2022-12-29T17:10:10;15.33;;;4.27;;
23288;SDS011;11813;50.834;4.280;2022-12-29T17:12:37;15.83;;;3.13;;
23288;SDS011;11813;50.834;4.280;2022-12-29T17:15:05;15.30;;;3.30;;
23288;SDS011;11813;50.834;4.280;2022-12-29T17:17:41;16.67;;;3.40;;
23288;SDS011;11813;50.834;4.280;2022-12-29T17:22:48;11.83;;;2.67;;
23288;SDS011;11813;50.834;4.280;2022-12-29T17:25:16;12.33;;;3.03;;
23288;SDS011;11813;50.834;4.280;2022-12-29T17:27:45;18.33;;;3.17;;
23288;SDS011;11813;50.834;4.280;2022-12-29T17:30:19;18.07;;;3.20;;
23288;SDS011;11813;50.834;4.280;2022-12-29T17:33:05;18.87;;;3.57;;
23288;SDS011;11813;50.834;4.280;2022-12-29T17:35:34;16.63;;;3.57;;
23288;SDS011;11813;50.834;4.280;2022-12-29T17:38:00;10.40;;;2.67;;
23288;SDS011;11813;50.834;4.280;2022-12-29T17:40:26;9.13;;;2.97;;
23288;SDS011;11813;50.834;4.280;2022-12-29T17:42:54;17.20;;;3.70;;
23288;SDS011;11813;50.834;4.280;2022-12-29T17:45:28;14.37;;;3.20;;
23288;SDS011;11813;50.834;4.280;2022-12-29T17:47:55;14.20;;;3.27;;
23288;SDS011;11813;50.834;4.280;2022-12-29T17:50:25;12.27;;;3.10;;